AirNav   Bose Proflight or Bose A20?
 
 449 users online  

7P5 Piso Airport
Suring, Wisconsin, USA

GOING TO SURING?


FAA INFORMATION EFFECTIVE 23 MAY 2019

Location

FAA Identifier: 7P5
Lat/Long: 45-03-55.5000N / 088-25-37.5000W
45-03.925000N / 088-25.625000W
45.0654167 / -88.4270833
(estimated)
Elevation: 891 ft. / 271.6 m (surveyed)
Variation: 01E (1995)
From city: 4 miles NW of SURING, WI
Time zone: UTC -5 (UTC -6 during Standard Time)
Zip code: 54174

Airport Operations

Airport use: Open to the public
Activation date: 12/1968
Control tower: no
ARTCC: MINNEAPOLIS CENTER
FSS: GREEN BAY FLIGHT SERVICE STATION
NOTAMs facility: GRB (NOTAM-D service available)
Attendance: UNATNDD
Pattern altitude: 1391 ft. MSL
Wind indicator: yes
Segmented circle: no

Airport Communications

CTAF: 122.9
WX AWOS-3 at EZS (18 nm S): 118.65 (715-526-2967)

Nearby radio navigation aids

VOR radial/distance  VOR name  Freq  Var
GRBr341/32.2GREEN BAY VORTAC115.5001E
MNMr258/33.7MENOMINEE VOR/DME109.6000E

Airport Services

Fuel available: MOGAS
FUEL AVBL & LOCAL FULL SERVICE GAS STATION N END OF FIELD DURG DALGT HRS.
Airframe service: NONE
Powerplant service: NONE
Bottled oxygen: NONE
Bulk oxygen: NONE

Runway Information

Runway 1/19

Dimensions: 2080 x 55 ft. / 634 x 17 m
Surface: turf, in fair condition
Runway edge markings: RY 01 /19 MKD WITH ORANGE BARRELS.
Gradient: N
RUNWAY 1  RUNWAY 19
Latitude: 45-03.755452N45-04.095812N
Longitude: 088-25.651815W088-25.599522W
Elevation: 880.0 ft.890.0 ft.
Traffic pattern: leftleft
Runway heading: 005 magnetic, 006 true185 magnetic, 186 true
Obstructions: 65 ft. trees, 50 ft. left of centerline45 ft. trees, 100 ft. right of centerline

Airport Ownership and Management from official FAA records

Ownership: Privately-owned
Owner: NICKOLAS PISO
8031 W TRIPOLI AVE
MILWAUKEE, WI 53220
Phone (414) 545-2759
Manager: NICKOLAS PISO
8031 W TRIPOLI AVE
MILWAUKEE, WI 53220
Phone (414) 758-0927

Airport Operational Statistics

Aircraft operations: avg 25/month *
67% transient general aviation
33% local general aviation
* for 12-month period ending 11 October 2016

Additional Remarks

RYS NOT PLOWED & ARPT CLSD NOV 15 THRU MAR 31.

Instrument Procedures

There are no published instrument procedures at 7P5.

Some nearby airports with instrument procedures:

KEZS - Shawano Municipal Airport (18 nm S)
KOCQ - Oconto-J Douglas Bake Municipal Airport (25 nm SE)
KAIG - Langlade County Airport (29 nm W)
KCLI - Clintonville Municipal Airport (30 nm SW)
KMNM - Menominee Regional Airport (34 nm E)
 
Loc | Ops | Rwys | IFR | FBO | Links
Com | Nav | Svcs | Stats | Notes
Area around 7P5 (Piso Airport)
 
Road maps at: MapQuest Bing Google
 
Aerial photo
No photo
 
Sectional chart

 
Airport distance calculator
Flying to Piso Airport? Find the distance to fly.

From to 7P5

Sunrise and sunset
Times for 16-Jun-2019
 Local
(UTC-5)
 Zulu
(UTC)
Morning civil twilight04:3009:30
Sunrise05:0710:07
Sunset20:4201:42
Evening civil twilight21:1902:19

Current date and time
Zulu (UTC)  16-Jun-2019 05:33:40
Local (UTC-5)  16-Jun-2019 00:33:40
 
METAR
KEZS 
18nm S 
715-526-2967
160515Z AUTO 08007KT 10SM OVC050 15/09 A2986 RMK AO2 T01500087
KOCQ 
25nm SE 
160515Z AUTO 06004KT 10SM CLR 13/08 A2986 RMK AO1 T01310081
KAIG 
30nm W 
160515Z AUTO 09008KT 10SM BKN050 12/07 A2988 RMK AO2 T01160070
KCLI 
31nm SW 
160515Z AUTO 07007KT 10SM BKN047 OVC050 14/07 A2984 RMK AO2 T01410073
KMNM 
34nm E 
160456Z AUTO 04008KT 10SM CLR 11/08 A2988 RMK AO2 SLP119 T01060083 401780106 $
TAF
KGRB 
37nm S 
151740Z 1518/1618 04014G23KT P6SM BKN010 FM151900 04012G21KT P6SM SCT010 BKN035 FM152000 05011G18KT P6SM SCT035 BKN050 FM160000 06006KT P6SM BKN080 FM161500 05008KT P6SM VCSH BKN050
NOTAMs
Click for the latest NOTAMs
NOTAMs are issued by the DoD/FAA and will open in a separate window not controlled by AirNav.

 

 
 

FBO, Fuel Providers, and Aircraft Ground Support

  
 Business Name 
 
 Contact 
 
 Services / Description 
 
Fuel Prices
 
Comments
  
Rhode's Oasis 920-842-2955
no information available

If you are affiliated with Rhode's Oasis and would like to show here your services, contact info, web link, logo, and more, click here
Mogas
SS $3.20 
 Updated 01-Apr-2018
 
   write
SS=Self service
Update Fuel Prices
 

Would you like to see your business listed on this page?

 If your business provides an interesting product or service to pilots, flight crews, aircraft, or users of the Piso Airport, you should consider listing it here.  To start the listing process, click on the button below
 
Add a business
 

Other Pages about Piso Airport

Page from the Wisconsin airport directory (PDF)
 
Update a link
 
Copyright © AirNav, LLC. All rights reserved. Privacy Policy  Contact